Terminal Aerodrome Forecast
Issued by NWS

Home | Current Version | Previous Version | Graphics & Text | Print | Product List | Glossary On
Versions: 1 2 3 4 5 6 7 8 9 10 11 12 13 14 15 16
161
FTUS43 KICT 231138
TAFRSL
TAF
KRSL 231138Z 2312/2412 08016G23KT P6SM VCSH BKN100
     FM231500 08016G23KT P6SM SCT015 BKN100
     FM232200 03013G19KT P6SM VCTS BKN050CB
     FM240000 33019G26KT P6SM VCSH BKN015=

USA.gov is the U.S. government's official web portal to all federal, state and local government web resources and services.